createdAt,value
2022-08-11T00:02:16.310Z,19.90
2022-08-11T00:04:42.198Z,19.90
2022-08-11T00:07:08.099Z,19.70
2022-08-11T00:09:39.361Z,19.60
2022-08-11T00:12:05.898Z,19.40
2022-08-11T00:14:36.752Z,19.40
2022-08-11T00:17:03.826Z,19.50
2022-08-11T00:20:13.344Z,19.30
2022-08-11T00:22:15.654Z,19.30
2022-08-11T00:24:52.626Z,19.20
2022-08-11T00:27:22.062Z,19.20
2022-08-11T00:29:51.778Z,19.30
2022-08-11T00:32:17.958Z,19.20
2022-08-11T00:34:43.920Z,19.20
2022-08-11T00:37:09.807Z,19.10
2022-08-11T00:39:35.746Z,19.10
2022-08-11T00:42:01.798Z,18.90
2022-08-11T00:44:27.686Z,19.00
2022-08-11T00:46:54.762Z,18.70
2022-08-11T00:49:20.743Z,18.70
2022-08-11T00:52:03.981Z,18.70
2022-08-11T00:54:33.201Z,19.00
2022-08-11T00:56:59.214Z,19.00
2022-08-11T00:59:34.827Z,18.40
2022-08-11T01:02:01.844Z,18.60
2022-08-11T01:04:27.737Z,18.80
2022-08-11T01:06:53.626Z,18.80
2022-08-11T01:09:22.511Z,18.90
2022-08-11T01:11:55.649Z,18.80
2022-08-11T01:14:34.433Z,18.90
2022-08-11T01:17:00.664Z,19.00
2022-08-11T01:19:26.618Z,18.80
2022-08-11T01:21:52.538Z,18.60
2022-08-11T01:24:21.003Z,18.70
2022-08-11T01:26:46.964Z,18.90
2022-08-11T01:29:12.860Z,18.90
2022-08-11T01:31:38.757Z,18.80
2022-08-11T01:34:04.746Z,18.60
2022-08-11T01:36:30.639Z,18.50
2022-08-11T01:38:56.542Z,18.50
2022-08-11T01:41:22.483Z,18.40
2022-08-11T01:43:48.371Z,18.30
2022-08-11T01:46:14.277Z,18.30
2022-08-11T01:48:40.219Z,18.10
2022-08-11T01:51:06.133Z,18.30
2022-08-11T01:53:32.031Z,18.30
2022-08-11T01:55:57.985Z,18.40
2022-08-11T01:58:40.845Z,18.20
2022-08-11T02:01:09.896Z,18.20
2022-08-11T02:03:35.839Z,18.00
2022-08-11T02:06:01.744Z,17.80
2022-08-11T02:08:33.155Z,17.70
2022-08-11T02:10:59.656Z,17.70
2022-08-11T02:13:33.426Z,17.80
2022-08-11T02:16:02.525Z,18.00
2022-08-11T02:18:28.419Z,17.70
2022-08-11T02:20:54.322Z,17.90
2022-08-11T02:24:04.350Z,18.10
2022-08-11T02:26:06.612Z,18.00
2022-08-11T02:28:36.967Z,17.90
2022-08-11T02:31:04.738Z,17.60
2022-08-11T02:33:36.538Z,17.20
2022-08-11T02:36:02.619Z,17.60
2022-08-11T02:38:28.515Z,17.90
2022-08-11T02:40:54.482Z,18.00
2022-08-11T02:43:20.372Z,18.00
2022-08-11T02:45:46.294Z,18.00
2022-08-11T02:48:12.251Z,17.70
2022-08-11T02:50:38.145Z,17.80
2022-08-11T02:53:04.034Z,17.50
2022-08-11T02:55:55.764Z,17.80
2022-08-11T02:58:15.861Z,17.80
2022-08-11T03:00:42.687Z,17.60
2022-08-11T03:03:08.622Z,17.40
2022-08-11T03:05:34.595Z,17.40
2022-08-11T03:08:00.577Z,16.90
2022-08-11T03:10:26.510Z,17.10
2022-08-11T03:12:53.812Z,17.10
2022-08-11T03:15:19.890Z,17.10
2022-08-11T03:17:45.861Z,17.20
2022-08-11T03:20:11.820Z,17.10
2022-08-11T03:22:38.111Z,17.30
2022-08-11T03:25:04.205Z,17.10
2022-08-11T03:27:30.161Z,17.00
2022-08-11T03:29:56.141Z,17.00
2022-08-11T03:32:22.082Z,16.80
2022-08-11T03:34:48.019Z,17.20
2022-08-11T03:37:16.107Z,17.20
2022-08-11T03:39:51.117Z,17.40
2022-08-11T03:42:22.858Z,17.50
2022-08-11T03:44:48.815Z,17.20
2022-08-11T03:47:14.755Z,17.10
2022-08-11T03:49:40.728Z,17.20
2022-08-11T03:52:06.674Z,17.50
2022-08-11T03:54:32.630Z,17.40
2022-08-11T03:56:58.638Z,17.40
2022-08-11T03:59:24.579Z,17.30
2022-08-11T04:01:50.546Z,17.40
2022-08-11T04:04:16.563Z,17.40
2022-08-11T04:06:42.502Z,17.50
2022-08-11T04:09:08.452Z,17.50
2022-08-11T04:11:34.474Z,17.50
2022-08-11T04:14:00.407Z,17.50
2022-08-11T04:16:26.371Z,17.60
2022-08-11T04:18:52.387Z,17.60
2022-08-11T04:21:18.322Z,17.40
2022-08-11T04:24:36.860Z,17.50
2022-08-11T04:26:30.234Z,17.10
2022-08-11T04:29:00.350Z,17.20
2022-08-11T04:31:49.607Z,16.90
2022-08-11T04:34:12.267Z,17.20
2022-08-11T04:36:38.369Z,17.10
2022-08-11T04:39:04.328Z,17.30
2022-08-11T04:41:30.341Z,17.30
2022-08-11T04:44:02.830Z,17.30
2022-08-11T04:46:32.490Z,17.50
2022-08-11T04:48:58.434Z,17.70
2022-08-11T04:51:24.385Z,17.80
2022-08-11T04:53:52.383Z,17.60
2022-08-11T04:56:18.472Z,17.70
2022-08-11T04:58:44.409Z,18.00
2022-08-11T05:01:10.405Z,17.80
2022-08-11T05:03:36.418Z,18.30
2022-08-11T05:06:02.360Z,18.50
2022-08-11T05:08:28.344Z,18.60
2022-08-11T05:10:54.299Z,19.00
2022-08-11T05:13:20.228Z,19.40
2022-08-11T05:15:49.594Z,19.60
2022-08-11T05:18:17.397Z,19.70
2022-08-11T05:20:43.354Z,19.90
2022-08-11T05:23:09.371Z,20.00
2022-08-11T05:26:43.466Z,20.00
2022-08-11T05:28:21.300Z,20.20
2022-08-11T05:30:47.248Z,20.40
2022-08-11T05:33:13.201Z,20.50
2022-08-11T05:36:02.295Z,20.60
2022-08-11T05:38:25.140Z,20.80
2022-08-11T05:40:53.240Z,20.80
2022-08-11T05:43:25.815Z,20.80
2022-08-11T05:46:03.362Z,21.00
2022-08-11T05:48:30.848Z,21.20
2022-08-11T05:50:56.823Z,21.40
2022-08-11T05:53:23.244Z,21.60
2022-08-11T05:56:02.349Z,21.60
2022-08-11T05:58:29.642Z,21.50
2022-08-11T06:00:55.591Z,21.50
2022-08-11T06:03:21.546Z,21.50
2022-08-11T06:05:47.538Z,21.60
2022-08-11T06:08:17.686Z,21.90
2022-08-11T06:10:43.636Z,22.10
2022-08-11T06:13:09.667Z,22.00
2022-08-11T06:15:35.636Z,22.30
2022-08-11T06:18:01.587Z,22.20
2022-08-11T06:20:30.151Z,22.40
2022-08-11T06:22:56.086Z,22.30
2022-08-11T06:25:22.038Z,22.40
2022-08-11T06:27:48.051Z,22.70
2022-08-11T06:30:14.042Z,22.60
2022-08-11T06:32:40.109Z,22.90
2022-08-11T06:35:06.112Z,22.30
2022-08-11T06:37:36.210Z,22.20
2022-08-11T06:40:02.558Z,22.20
2022-08-11T06:42:29.331Z,22.30
2022-08-11T06:44:55.274Z,22.60
2022-08-11T06:47:21.227Z,22.60
2022-08-11T06:49:47.203Z,22.80
2022-08-11T06:52:35.765Z,22.80
2022-08-11T06:54:59.208Z,23.10
2022-08-11T06:57:32.407Z,22.80
2022-08-11T06:59:58.391Z,23.00
2022-08-11T07:02:29.148Z,22.90
2022-08-11T07:04:56.957Z,23.00
2022-08-11T07:07:22.895Z,23.30
2022-08-11T07:09:48.889Z,23.40
2022-08-11T07:12:14.838Z,23.50
2022-08-11T07:14:40.784Z,23.20
2022-08-11T07:17:06.766Z,23.70
2022-08-11T07:19:32.711Z,23.10
2022-08-11T07:22:02.465Z,23.50
2022-08-11T07:24:34.556Z,23.70
2022-08-11T07:27:15.593Z,24.00
2022-08-11T07:29:41.626Z,24.00
2022-08-11T07:32:07.563Z,24.30
2022-08-11T07:34:33.521Z,24.20
2022-08-11T07:36:59.527Z,24.60
2022-08-11T07:39:25.556Z,24.90
2022-08-11T07:41:51.559Z,24.70
2022-08-11T07:44:17.565Z,24.00
2022-08-11T07:46:43.516Z,23.50
2022-08-11T07:49:09.462Z,23.80
2022-08-11T07:51:35.472Z,23.90
2022-08-11T07:54:15.345Z,24.20
2022-08-11T07:56:55.158Z,24.60
2022-08-11T07:59:57.537Z,24.70
2022-08-11T08:02:14.711Z,24.80
2022-08-11T08:04:45.329Z,24.90
2022-08-11T08:07:13.125Z,24.80
2022-08-11T08:09:39.122Z,24.80
2022-08-11T08:12:05.060Z,24.80
2022-08-11T08:14:31.009Z,24.50
2022-08-11T08:16:56.978Z,24.80
2022-08-11T08:19:22.927Z,25.20
2022-08-11T08:21:49.877Z,25.60
2022-08-11T08:24:15.875Z,25.70
2022-08-11T08:26:41.820Z,26.00
2022-08-11T08:29:14.308Z,25.60
2022-08-11T08:31:40.334Z,25.70
2022-08-11T08:34:06.294Z,25.70
2022-08-11T08:36:32.262Z,26.00
2022-08-11T08:38:58.247Z,26.20
2022-08-11T08:41:24.207Z,26.00
2022-08-11T08:43:50.177Z,26.20
2022-08-11T08:46:16.162Z,26.00
2022-08-11T08:48:42.121Z,26.00
2022-08-11T08:51:08.197Z,25.40
2022-08-11T08:53:34.190Z,25.90
2022-08-11T08:56:00.135Z,25.80
2022-08-11T08:58:26.089Z,26.10
2022-08-11T09:00:52.123Z,26.00
2022-08-11T09:03:39.907Z,26.20
2022-08-11T09:06:04.094Z,26.50
2022-08-11T09:08:30.043Z,26.60
2022-08-11T09:10:55.973Z,26.50
2022-08-11T09:13:21.976Z,26.40
2022-08-11T09:15:47.937Z,26.40
2022-08-11T09:18:13.892Z,26.50
2022-08-11T09:20:39.866Z,26.60
2022-08-11T09:25:51.807Z,26.90
2022-08-11T09:28:17.737Z,26.90
2022-08-11T09:30:43.683Z,26.90
2022-08-11T09:33:09.719Z,26.90
2022-08-11T09:35:35.693Z,26.90
2022-08-11T09:38:01.928Z,27.10
2022-08-11T09:40:28.209Z,27.30
2022-08-11T09:42:55.122Z,27.30
2022-08-11T09:45:21.070Z,27.70
2022-08-11T09:47:47.063Z,28.00
2022-08-11T09:50:13.023Z,28.00
2022-08-11T09:52:44.884Z,27.60
2022-08-11T09:55:18.292Z,27.70
2022-08-11T09:57:44.234Z,27.80
2022-08-11T10:00:13.423Z,27.70
2022-08-11T10:02:39.918Z,27.40
2022-08-11T10:05:05.870Z,27.10
2022-08-11T10:07:31.833Z,27.60
2022-08-11T10:09:57.818Z,28.00
2022-08-11T10:12:23.766Z,28.00
2022-08-11T10:14:49.747Z,28.00
2022-08-11T10:17:15.732Z,27.90
2022-08-11T10:19:41.672Z,28.50
2022-08-11T10:22:07.613Z,28.70
2022-08-11T10:24:33.599Z,28.40
2022-08-11T10:27:00.311Z,28.40
2022-08-11T10:29:26.509Z,28.70
2022-08-11T10:32:02.945Z,28.80
2022-08-11T10:34:30.531Z,29.40
2022-08-11T10:36:57.411Z,28.80
2022-08-11T10:39:23.502Z,28.80
2022-08-11T10:42:03.369Z,29.10
2022-08-11T10:44:35.470Z,29.00
2022-08-11T10:47:01.467Z,29.50
2022-08-11T10:49:27.420Z,29.10
2022-08-11T10:51:53.791Z,29.00
2022-08-11T10:54:20.251Z,28.70
2022-08-11T10:56:46.213Z,29.30
2022-08-11T10:59:12.195Z,29.90
2022-08-11T11:01:38.135Z,30.30
2022-08-11T11:04:04.119Z,29.70
2022-08-11T11:06:30.187Z,29.40
2022-08-11T11:08:58.898Z,29.10
2022-08-11T11:11:27.680Z,29.00
2022-08-11T11:13:55.453Z,28.30
2022-08-11T11:16:23.362Z,28.70
2022-08-11T11:19:00.711Z,29.30
2022-08-11T11:21:27.301Z,30.00
2022-08-11T11:23:53.256Z,30.00
2022-08-11T11:26:19.208Z,28.90
2022-08-11T11:28:53.781Z,28.40
2022-08-11T11:31:20.798Z,28.40
2022-08-11T11:34:06.867Z,28.30
2022-08-11T11:36:32.714Z,28.50
2022-08-11T11:38:59.661Z,29.10
2022-08-11T11:41:27.842Z,29.40
2022-08-11T11:43:53.953Z,29.70
2022-08-11T11:46:19.900Z,30.00
2022-08-11T11:48:45.851Z,30.50
2022-08-11T11:51:11.832Z,30.30
2022-08-11T11:53:37.798Z,30.20
2022-08-11T11:56:03.741Z,30.00
2022-08-11T11:58:29.756Z,30.30
2022-08-11T12:00:56.521Z,31.00
2022-08-11T12:03:22.488Z,30.90
2022-08-11T12:05:48.499Z,30.40
2022-08-11T12:08:14.444Z,29.50
2022-08-11T12:10:40.385Z,28.30
2022-08-11T12:13:06.507Z,28.20
2022-08-11T12:16:03.657Z,28.90
2022-08-11T12:18:18.407Z,29.60
2022-08-11T12:20:44.723Z,29.80
2022-08-11T12:23:10.762Z,30.10
2022-08-11T12:25:40.808Z,29.90
2022-08-11T12:28:06.762Z,29.60
2022-08-11T12:30:32.752Z,30.40
2022-08-11T12:32:58.804Z,30.20
2022-08-11T12:35:24.758Z,30.20
2022-08-11T12:37:50.731Z,30.20
2022-08-11T12:40:42.471Z,30.40
2022-08-11T12:43:04.073Z,30.20
2022-08-11T12:45:34.355Z,30.00
2022-08-11T12:48:47.820Z,30.50
2022-08-11T12:50:46.254Z,30.70
2022-08-11T12:53:12.222Z,31.10
2022-08-11T12:55:38.176Z,30.90
2022-08-11T12:58:04.182Z,30.90
2022-08-11T13:00:30.139Z,30.20
2022-08-11T13:02:56.213Z,29.90
2022-08-11T13:05:22.219Z,30.10
2022-08-11T13:07:50.654Z,29.70
2022-08-11T13:10:17.478Z,30.00
2022-08-11T13:12:44.794Z,30.80
2022-08-11T13:15:10.728Z,31.20
2022-08-11T13:17:43.438Z,31.40
2022-08-11T13:20:10.394Z,30.70
2022-08-11T13:22:36.338Z,30.50
2022-08-11T13:25:02.304Z,30.70
2022-08-11T13:27:28.301Z,31.30
2022-08-11T13:29:54.251Z,30.80
2022-08-11T13:32:20.227Z,30.80
2022-08-11T13:34:46.228Z,31.20
2022-08-11T13:37:12.175Z,31.00
2022-08-11T13:39:38.187Z,30.50
2022-08-11T13:42:04.235Z,29.80
2022-08-11T13:44:30.280Z,29.60
2022-08-11T13:46:56.292Z,29.90
2022-08-11T13:49:22.309Z,29.80
2022-08-11T13:51:48.249Z,29.50
2022-08-11T13:54:14.194Z,29.30
2022-08-11T13:56:40.194Z,29.40
2022-08-11T13:59:06.132Z,29.60
2022-08-11T14:02:21.285Z,29.60
2022-08-11T14:04:30.552Z,29.70
2022-08-11T14:06:57.903Z,29.70
2022-08-11T14:09:26.121Z,29.40
2022-08-11T14:12:23.160Z,29.10
2022-08-11T14:14:38.050Z,29.00
2022-08-11T14:17:04.042Z,29.10
2022-08-11T14:19:29.980Z,29.50
2022-08-11T14:21:56.004Z,29.30
2022-08-11T14:24:21.963Z,29.10
2022-08-11T14:26:47.915Z,29.70
2022-08-11T14:29:13.971Z,29.80
2022-08-11T14:31:39.964Z,29.90
2022-08-11T14:34:05.929Z,29.30
2022-08-11T14:36:31.905Z,29.00
2022-08-11T14:38:57.842Z,29.30
2022-08-11T14:41:23.819Z,29.60
2022-08-11T14:44:12.440Z,30.60
2022-08-11T14:46:35.732Z,31.00
2022-08-11T14:49:01.733Z,31.10
2022-08-11T14:51:27.693Z,30.90
2022-08-11T14:53:58.686Z,31.40
2022-08-11T14:56:25.007Z,31.30
2022-08-11T14:58:50.955Z,31.30
2022-08-11T15:01:16.910Z,31.10
2022-08-11T15:03:42.979Z,30.90
2022-08-11T15:06:29.011Z,31.50
2022-08-11T15:08:55.084Z,32.10
2022-08-11T15:11:21.044Z,31.70
2022-08-11T15:13:46.983Z,31.00
2022-08-11T15:16:13.014Z,28.90
2022-08-11T15:18:38.956Z,28.50
2022-08-11T15:21:04.899Z,28.50
2022-08-11T15:23:30.893Z,28.60
2022-08-11T15:25:56.847Z,28.40
2022-08-11T15:28:22.793Z,28.40
2022-08-11T15:30:48.783Z,28.90
2022-08-11T15:33:14.739Z,28.50
2022-08-11T15:35:40.686Z,28.10
2022-08-11T15:38:06.689Z,28.00
2022-08-11T15:40:33.212Z,28.30
2022-08-11T15:42:59.291Z,28.40
2022-08-11T15:45:25.284Z,28.20
2022-08-11T15:47:51.227Z,28.30
2022-08-11T15:50:18.645Z,28.40
2022-08-11T15:52:44.634Z,28.40
2022-08-11T15:55:10.577Z,28.30
2022-08-11T15:57:39.786Z,28.00
2022-08-11T16:00:06.218Z,28.20
2022-08-11T16:02:32.149Z,28.80
2022-08-11T16:04:58.119Z,28.50
2022-08-11T16:07:25.290Z,28.10
2022-08-11T16:09:55.005Z,27.60
2022-08-11T16:12:25.716Z,27.50
2022-08-11T16:14:51.666Z,27.40
2022-08-11T16:17:17.605Z,27.50
2022-08-11T16:19:43.595Z,27.70
2022-08-11T16:22:09.535Z,27.40
2022-08-11T16:27:02.836Z,27.30
2022-08-11T16:27:24.447Z,27.20
2022-08-11T16:29:50.609Z,27.00
2022-08-11T16:32:16.559Z,26.70
2022-08-11T16:34:42.533Z,27.10
2022-08-11T16:37:08.481Z,27.20
2022-08-11T16:39:34.480Z,27.20
2022-08-11T16:42:00.507Z,27.20
2022-08-11T16:44:32.895Z,27.20
2022-08-11T16:47:03.459Z,27.30
2022-08-11T16:49:32.801Z,27.50
2022-08-11T16:52:00.647Z,27.30
2022-08-11T16:54:28.012Z,27.20
2022-08-11T16:56:54.406Z,26.90
2022-08-11T16:59:20.373Z,26.90
2022-08-11T17:01:46.403Z,27.00
2022-08-11T17:04:12.681Z,27.00
2022-08-11T17:06:38.644Z,26.80
2022-08-11T17:09:04.653Z,27.10
2022-08-11T17:11:30.619Z,27.00
2022-08-11T17:13:56.564Z,27.00
2022-08-11T17:16:22.573Z,27.00
2022-08-11T17:18:48.531Z,26.70
2022-08-11T17:21:14.465Z,26.60
2022-08-11T17:23:40.450Z,26.60
2022-08-11T17:26:06.389Z,26.70
2022-08-11T17:28:32.345Z,26.90
2022-08-11T17:30:58.341Z,26.70
2022-08-11T17:33:24.289Z,26.30
2022-08-11T17:35:50.217Z,26.20
2022-08-11T17:38:16.220Z,26.40
2022-08-11T17:40:42.157Z,26.40
2022-08-11T17:43:08.111Z,26.60
2022-08-11T17:45:34.147Z,26.90
2022-08-11T17:48:00.120Z,26.90
2022-08-11T17:50:26.097Z,27.00
2022-08-11T17:52:52.095Z,27.00
2022-08-11T17:55:18.048Z,27.10
2022-08-11T17:58:04.042Z,26.90
2022-08-11T18:00:29.987Z,26.90
2022-08-11T18:02:55.931Z,26.90
2022-08-11T18:05:21.920Z,26.90
2022-08-11T18:07:47.864Z,26.90
2022-08-11T18:10:13.801Z,26.70
2022-08-11T18:12:39.794Z,26.50
2022-08-11T18:15:05.811Z,26.50
2022-08-11T18:17:31.750Z,26.20
2022-08-11T18:19:57.730Z,26.20
2022-08-11T18:22:23.686Z,26.30
2022-08-11T18:24:49.635Z,26.00
2022-08-11T18:27:15.639Z,26.00
2022-08-11T18:29:47.972Z,25.80
2022-08-11T18:32:20.896Z,25.80
2022-08-11T18:34:49.081Z,25.70
2022-08-11T18:37:22.031Z,25.60
2022-08-11T18:39:55.972Z,25.60
2022-08-11T18:42:29.597Z,25.70
2022-08-11T18:44:55.873Z,25.70
2022-08-11T18:47:21.843Z,25.60
2022-08-11T18:50:01.783Z,25.80
2022-08-11T18:52:29.412Z,25.80
2022-08-11T18:54:55.798Z,25.90
2022-08-11T18:57:21.766Z,25.60
2022-08-11T18:59:47.793Z,25.60
2022-08-11T19:02:13.742Z,25.90
2022-08-11T19:04:39.696Z,25.90
2022-08-11T19:07:05.688Z,26.00
2022-08-11T19:09:31.637Z,26.20
2022-08-11T19:11:59.856Z,26.20
2022-08-11T19:14:26.001Z,26.30
2022-08-11T19:16:51.941Z,26.30
2022-08-11T19:19:17.894Z,26.10
2022-08-11T19:21:43.878Z,26.10
2022-08-11T19:24:09.816Z,26.10
2022-08-11T19:26:35.758Z,26.10
2022-08-11T19:29:01.758Z,26.20
2022-08-11T19:31:27.740Z,26.10
2022-08-11T19:34:03.187Z,25.60
2022-08-11T19:36:36.513Z,25.40
2022-08-11T19:39:02.468Z,25.50
2022-08-11T19:41:56.649Z,25.50
2022-08-11T19:44:16.643Z,25.40
2022-08-11T19:46:42.731Z,25.60
2022-08-11T19:49:08.680Z,25.60
2022-08-11T19:51:34.680Z,25.80
2022-08-11T19:54:00.623Z,25.60
2022-08-11T19:56:26.562Z,25.50
2022-08-11T19:58:52.582Z,25.60
2022-08-11T20:01:18.598Z,25.50
2022-08-11T20:03:44.551Z,25.60
2022-08-11T20:06:10.544Z,25.70
2022-08-11T20:08:36.504Z,25.30
2022-08-11T20:11:02.450Z,25.00
2022-08-11T20:13:28.468Z,24.80
2022-08-11T20:15:54.467Z,25.10
2022-08-11T20:18:20.474Z,25.40
2022-08-11T20:20:46.454Z,25.50
2022-08-11T20:23:13.841Z,24.90
2022-08-11T20:25:39.890Z,25.00
2022-08-11T20:28:05.895Z,24.90
2022-08-11T20:30:31.846Z,25.10
2022-08-11T20:32:57.781Z,25.30
2022-08-11T20:35:23.771Z,25.30
2022-08-11T20:37:51.423Z,25.30
2022-08-11T20:40:17.604Z,25.30
2022-08-11T20:42:49.778Z,25.20
2022-08-11T20:45:15.729Z,25.10
2022-08-11T20:47:56.506Z,24.70
2022-08-11T20:50:26.594Z,24.30
2022-08-11T20:52:54.700Z,24.00
2022-08-11T20:55:25.806Z,24.00
2022-08-11T20:58:07.007Z,24.40
2022-08-11T21:00:40.403Z,24.30
2022-08-11T21:03:06.394Z,24.40
2022-08-11T21:06:09.908Z,24.70
2022-08-11T21:08:18.293Z,24.80
2022-08-11T21:10:51.983Z,24.80
2022-08-11T21:13:27.033Z,24.40
2022-08-11T21:16:01.537Z,24.10
2022-08-11T21:18:29.617Z,24.20
2022-08-11T21:20:55.738Z,24.00
2022-08-11T21:23:24.410Z,23.90
2022-08-11T21:25:50.496Z,23.70
2022-08-11T21:28:16.490Z,23.60
2022-08-11T21:30:42.434Z,24.00
2022-08-11T21:33:08.380Z,24.10
2022-08-11T21:35:34.360Z,24.30
2022-08-11T21:38:01.717Z,24.50
2022-08-11T21:40:33.006Z,24.50
2022-08-11T21:42:58.995Z,24.20
2022-08-11T21:45:24.944Z,24.20
2022-08-11T21:48:00.820Z,23.80
2022-08-11T21:50:27.226Z,24.00
2022-08-11T21:52:53.574Z,24.10
2022-08-11T21:55:20.981Z,24.20
2022-08-11T21:57:47.983Z,24.30
2022-08-11T22:00:16.666Z,24.30
2022-08-11T22:02:42.849Z,24.30
2022-08-11T22:05:15.105Z,23.90
2022-08-11T22:07:41.257Z,24.00
2022-08-11T22:10:27.224Z,24.10
2022-08-11T22:12:53.234Z,23.70
2022-08-11T22:15:19.162Z,23.80
2022-08-11T22:17:45.117Z,23.40
2022-08-11T22:20:11.103Z,23.70
2022-08-11T22:22:51.223Z,23.90
2022-08-11T22:25:18.838Z,23.90
2022-08-11T22:27:46.640Z,23.60
2022-08-11T22:30:12.578Z,23.40
2022-08-11T22:32:38.666Z,23.60
2022-08-11T22:35:04.743Z,23.70
2022-08-11T22:37:30.680Z,23.80
2022-08-11T22:40:02.244Z,23.40
2022-08-11T22:42:33.201Z,23.50
2022-08-11T22:45:09.548Z,23.40
2022-08-11T22:47:38.367Z,23.50
2022-08-11T22:50:06.563Z,23.30
2022-08-11T22:52:32.574Z,22.80
2022-08-11T22:54:58.548Z,23.00
2022-08-11T22:57:24.491Z,23.30
2022-08-11T22:59:50.475Z,23.40
2022-08-11T23:02:16.426Z,23.40
2022-08-11T23:04:42.393Z,23.10
2022-08-11T23:07:08.394Z,23.30
2022-08-11T23:09:34.388Z,23.30
2022-08-11T23:12:06.629Z,23.00
2022-08-11T23:14:33.517Z,23.00
2022-08-11T23:16:59.460Z,23.20
2022-08-11T23:20:00.339Z,23.20
2022-08-11T23:22:11.368Z,23.10
2022-08-11T23:24:37.358Z,22.90
2022-08-11T23:27:03.334Z,22.90
2022-08-11T23:29:29.315Z,23.00
2022-08-11T23:31:55.255Z,23.20
2022-08-11T23:35:02.881Z,23.00
2022-08-11T23:37:07.145Z,23.20
2022-08-11T23:39:33.130Z,23.30
2022-08-11T23:41:59.143Z,23.10
2022-08-11T23:44:25.149Z,22.80
2022-08-11T23:46:51.084Z,22.80
2022-08-11T23:49:17.036Z,23.00
2022-08-11T23:51:43.045Z,23.10
2022-08-11T23:54:08.991Z,23.20
2022-08-11T23:56:34.958Z,23.00
2022-08-11T23:59:00.959Z,22.90
